sensor_id;sensor_type;location;lat;lon;timestamp;P1;durP1;ratioP1;P2;durP2;ratioP2
3771;SDS011;1901;48.172;12.824;2023-05-16T00:02:00;4.33;;;3.93;;
3771;SDS011;1901;48.172;12.824;2023-05-16T00:04:27;6.07;;;4.47;;
3771;SDS011;1901;48.172;12.824;2023-05-16T00:06:55;3.50;;;3.20;;
3771;SDS011;1901;48.172;12.824;2023-05-16T00:09:22;4.20;;;3.40;;
3771;SDS011;1901;48.172;12.824;2023-05-16T00:11:49;4.07;;;3.67;;
3771;SDS011;1901;48.172;12.824;2023-05-16T00:14:16;11.90;;;8.00;;
3771;SDS011;1901;48.172;12.824;2023-05-16T00:16:45;6.13;;;5.10;;
3771;SDS011;1901;48.172;12.824;2023-05-16T00:19:12;4.23;;;3.83;;
3771;SDS011;1901;48.172;12.824;2023-05-16T00:21:39;4.70;;;4.10;;
3771;SDS011;1901;48.172;12.824;2023-05-16T00:24:06;3.57;;;3.27;;
3771;SDS011;1901;48.172;12.824;2023-05-16T00:26:34;5.10;;;3.20;;
3771;SDS011;1901;48.172;12.824;2023-05-16T00:29:01;9.73;;;4.87;;
3771;SDS011;1901;48.172;12.824;2023-05-16T00:31:28;8.97;;;4.80;;
3771;SDS011;1901;48.172;12.824;2023-05-16T00:33:56;4.30;;;3.90;;
3771;SDS011;1901;48.172;12.824;2023-05-16T00:36:23;7.27;;;4.87;;
3771;SDS011;1901;48.172;12.824;2023-05-16T00:38:50;4.90;;;4.00;;
3771;SDS011;1901;48.172;12.824;2023-05-16T00:41:17;5.77;;;4.70;;
3771;SDS011;1901;48.172;12.824;2023-05-16T00:43:45;4.83;;;4.00;;
3771;SDS011;1901;48.172;12.824;2023-05-16T00:46:12;4.97;;;3.67;;
3771;SDS011;1901;48.172;12.824;2023-05-16T00:48:39;5.67;;;3.63;;
3771;SDS011;1901;48.172;12.824;2023-05-16T00:51:07;4.90;;;3.47;;
3771;SDS011;1901;48.172;12.824;2023-05-16T00:53:35;4.50;;;3.13;;
3771;SDS011;1901;48.172;12.824;2023-05-16T00:56:02;4.93;;;4.40;;
3771;SDS011;1901;48.172;12.824;2023-05-16T00:58:29;4.00;;;3.60;;
3771;SDS011;1901;48.172;12.824;2023-05-16T01:00:58;7.33;;;3.90;;
3771;SDS011;1901;48.172;12.824;2023-05-16T01:03:26;4.23;;;3.67;;
3771;SDS011;1901;48.172;12.824;2023-05-16T01:05:53;6.43;;;4.33;;
3771;SDS011;1901;48.172;12.824;2023-05-16T01:08:22;5.23;;;4.73;;
3771;SDS011;1901;48.172;12.824;2023-05-16T01:10:52;5.33;;;4.60;;
3771;SDS011;1901;48.172;12.824;2023-05-16T01:13:23;7.13;;;4.87;;
3771;SDS011;1901;48.172;12.824;2023-05-16T01:15:55;5.40;;;4.80;;
3771;SDS011;1901;48.172;12.824;2023-05-16T01:18:27;10.00;;;5.57;;
3771;SDS011;1901;48.172;12.824;2023-05-16T01:20:58;7.37;;;5.73;;
3771;SDS011;1901;48.172;12.824;2023-05-16T01:23:39;5.30;;;4.63;;
3771;SDS011;1901;48.172;12.824;2023-05-16T01:28:54;4.77;;;4.37;;
3771;SDS011;1901;48.172;12.824;2023-05-16T01:31:21;5.20;;;4.70;;
3771;SDS011;1901;48.172;12.824;2023-05-16T01:33:48;4.30;;;3.90;;
3771;SDS011;1901;48.172;12.824;2023-05-16T01:36:18;4.67;;;4.27;;
3771;SDS011;1901;48.172;12.824;2023-05-16T01:38:50;5.57;;;5.03;;
3771;SDS011;1901;48.172;12.824;2023-05-16T01:41:22;4.80;;;4.33;;
3771;SDS011;1901;48.172;12.824;2023-05-16T01:43:51;5.60;;;4.73;;
3771;SDS011;1901;48.172;12.824;2023-05-16T01:46:23;6.50;;;5.43;;
3771;SDS011;1901;48.172;12.824;2023-05-16T01:48:52;7.03;;;5.53;;
3771;SDS011;1901;48.172;12.824;2023-05-16T01:51:20;4.60;;;4.10;;
3771;SDS011;1901;48.172;12.824;2023-05-16T01:53:48;5.00;;;4.37;;
3771;SDS011;1901;48.172;12.824;2023-05-16T01:56:15;4.90;;;4.40;;
3771;SDS011;1901;48.172;12.824;2023-05-16T01:58:43;12.20;;;5.43;;
3771;SDS011;1901;48.172;12.824;2023-05-16T02:01:11;7.73;;;5.60;;
3771;SDS011;1901;48.172;12.824;2023-05-16T02:03:40;5.97;;;5.33;;
3771;SDS011;1901;48.172;12.824;2023-05-16T02:06:07;5.07;;;4.53;;
3771;SDS011;1901;48.172;12.824;2023-05-16T02:08:34;6.50;;;4.97;;
3771;SDS011;1901;48.172;12.824;2023-05-16T02:11:01;10.67;;;5.83;;
3771;SDS011;1901;48.172;12.824;2023-05-16T02:13:28;7.00;;;6.30;;
3771;SDS011;1901;48.172;12.824;2023-05-16T02:15:55;6.73;;;5.27;;
3771;SDS011;1901;48.172;12.824;2023-05-16T02:18:23;6.00;;;4.70;;
3771;SDS011;1901;48.172;12.824;2023-05-16T02:20:51;9.17;;;5.73;;
3771;SDS011;1901;48.172;12.824;2023-05-16T02:23:18;12.63;;;5.60;;
3771;SDS011;1901;48.172;12.824;2023-05-16T02:25:45;5.43;;;4.90;;
3771;SDS011;1901;48.172;12.824;2023-05-16T02:28:12;5.57;;;4.93;;
3771;SDS011;1901;48.172;12.824;2023-05-16T02:30:39;5.47;;;4.97;;
3771;SDS011;1901;48.172;12.824;2023-05-16T02:33:06;7.90;;;5.63;;
3771;SDS011;1901;48.172;12.824;2023-05-16T02:35:34;5.70;;;4.63;;
3771;SDS011;1901;48.172;12.824;2023-05-16T02:38:02;7.80;;;6.10;;
3771;SDS011;1901;48.172;12.824;2023-05-16T02:40:29;6.93;;;4.40;;
3771;SDS011;1901;48.172;12.824;2023-05-16T02:42:56;5.60;;;5.10;;
3771;SDS011;1901;48.172;12.824;2023-05-16T02:45:23;6.27;;;5.50;;
3771;SDS011;1901;48.172;12.824;2023-05-16T02:47:51;5.13;;;4.60;;
3771;SDS011;1901;48.172;12.824;2023-05-16T02:50:18;6.77;;;5.30;;
3771;SDS011;1901;48.172;12.824;2023-05-16T02:52:45;6.43;;;5.63;;
3771;SDS011;1901;48.172;12.824;2023-05-16T02:55:13;6.93;;;4.70;;
3771;SDS011;1901;48.172;12.824;2023-05-16T02:57:41;6.60;;;5.40;;
3771;SDS011;1901;48.172;12.824;2023-05-16T03:00:08;7.27;;;5.37;;
3771;SDS011;1901;48.172;12.824;2023-05-16T03:02:35;7.10;;;5.53;;
3771;SDS011;1901;48.172;12.824;2023-05-16T03:05:03;5.30;;;4.63;;
3771;SDS011;1901;48.172;12.824;2023-05-16T03:07:30;5.87;;;5.27;;
3771;SDS011;1901;48.172;12.824;2023-05-16T03:09:57;5.87;;;5.07;;
3771;SDS011;1901;48.172;12.824;2023-05-16T03:12:26;6.47;;;5.20;;
3771;SDS011;1901;48.172;12.824;2023-05-16T03:14:53;5.70;;;5.00;;
3771;SDS011;1901;48.172;12.824;2023-05-16T03:17:20;5.90;;;5.30;;
3771;SDS011;1901;48.172;12.824;2023-05-16T03:19:47;7.43;;;5.30;;
3771;SDS011;1901;48.172;12.824;2023-05-16T03:22:14;7.80;;;5.60;;
3771;SDS011;1901;48.172;12.824;2023-05-16T03:24:41;7.43;;;5.83;;
3771;SDS011;1901;48.172;12.824;2023-05-16T03:27:08;14.13;;;6.33;;
3771;SDS011;1901;48.172;12.824;2023-05-16T03:29:37;8.60;;;6.30;;
3771;SDS011;1901;48.172;12.824;2023-05-16T03:32:04;7.23;;;6.30;;
3771;SDS011;1901;48.172;12.824;2023-05-16T03:34:31;8.70;;;6.50;;
3771;SDS011;1901;48.172;12.824;2023-05-16T03:36:58;6.60;;;5.30;;
3771;SDS011;1901;48.172;12.824;2023-05-16T03:39:25;6.13;;;5.53;;
3771;SDS011;1901;48.172;12.824;2023-05-16T03:41:53;8.70;;;5.33;;
3771;SDS011;1901;48.172;12.824;2023-05-16T03:44:21;11.47;;;9.13;;
3771;SDS011;1901;48.172;12.824;2023-05-16T03:46:49;11.77;;;8.63;;
3771;SDS011;1901;48.172;12.824;2023-05-16T03:49:18;11.23;;;7.03;;
3771;SDS011;1901;48.172;12.824;2023-05-16T03:51:45;9.13;;;6.87;;
3771;SDS011;1901;48.172;12.824;2023-05-16T03:54:12;9.57;;;6.67;;
3771;SDS011;1901;48.172;12.824;2023-05-16T03:56:39;8.67;;;6.90;;
3771;SDS011;1901;48.172;12.824;2023-05-16T03:59:06;24.03;;;15.27;;
3771;SDS011;1901;48.172;12.824;2023-05-16T04:01:33;9.00;;;7.43;;
3771;SDS011;1901;48.172;12.824;2023-05-16T04:04:02;9.30;;;7.03;;
3771;SDS011;1901;48.172;12.824;2023-05-16T04:06:29;15.43;;;8.20;;
3771;SDS011;1901;48.172;12.824;2023-05-16T04:08:56;8.20;;;6.43;;
3771;SDS011;1901;48.172;12.824;2023-05-16T04:11:23;9.87;;;6.93;;
3771;SDS011;1901;48.172;12.824;2023-05-16T04:13:51;14.27;;;11.33;;
3771;SDS011;1901;48.172;12.824;2023-05-16T04:16:19;7.90;;;5.90;;
3771;SDS011;1901;48.172;12.824;2023-05-16T04:18:46;7.73;;;6.50;;
3771;SDS011;1901;48.172;12.824;2023-05-16T04:21:14;11.77;;;5.70;;
3771;SDS011;1901;48.172;12.824;2023-05-16T04:23:41;6.43;;;5.83;;
3771;SDS011;1901;48.172;12.824;2023-05-16T04:26:09;7.53;;;6.73;;
3771;SDS011;1901;48.172;12.824;2023-05-16T04:28:36;6.03;;;5.03;;
3771;SDS011;1901;48.172;12.824;2023-05-16T04:31:03;8.77;;;5.23;;
3771;SDS011;1901;48.172;12.824;2023-05-16T04:33:32;7.37;;;5.70;;
3771;SDS011;1901;48.172;12.824;2023-05-16T04:35:59;10.60;;;6.13;;
3771;SDS011;1901;48.172;12.824;2023-05-16T04:38:27;8.03;;;6.77;;
3771;SDS011;1901;48.172;12.824;2023-05-16T04:40:55;8.43;;;6.23;;
3771;SDS011;1901;48.172;12.824;2023-05-16T04:43:22;7.93;;;7.03;;
3771;SDS011;1901;48.172;12.824;2023-05-16T04:45:49;6.33;;;5.33;;
3771;SDS011;1901;48.172;12.824;2023-05-16T04:48:17;6.60;;;4.60;;
3771;SDS011;1901;48.172;12.824;2023-05-16T04:50:45;6.47;;;4.83;;
3771;SDS011;1901;48.172;12.824;2023-05-16T04:53:12;5.33;;;4.40;;
3771;SDS011;1901;48.172;12.824;2023-05-16T04:55:40;6.37;;;5.40;;
3771;SDS011;1901;48.172;12.824;2023-05-16T04:58:07;5.83;;;5.20;;
3771;SDS011;1901;48.172;12.824;2023-05-16T05:00:34;8.20;;;5.23;;
3771;SDS011;1901;48.172;12.824;2023-05-16T05:03:02;6.23;;;5.37;;
3771;SDS011;1901;48.172;12.824;2023-05-16T05:05:29;6.03;;;5.53;;
3771;SDS011;1901;48.172;12.824;2023-05-16T05:07:56;5.30;;;4.80;;
3771;SDS011;1901;48.172;12.824;2023-05-16T05:10:24;5.60;;;5.00;;
3771;SDS011;1901;48.172;12.824;2023-05-16T05:12:53;6.13;;;5.57;;
3771;SDS011;1901;48.172;12.824;2023-05-16T05:15:20;11.43;;;6.97;;
3771;SDS011;1901;48.172;12.824;2023-05-16T05:17:47;6.77;;;5.90;;
3771;SDS011;1901;48.172;12.824;2023-05-16T05:20:14;5.43;;;4.90;;
3771;SDS011;1901;48.172;12.824;2023-05-16T05:22:41;9.07;;;5.87;;
3771;SDS011;1901;48.172;12.824;2023-05-16T05:25:08;5.77;;;4.90;;
3771;SDS011;1901;48.172;12.824;2023-05-16T05:27:36;8.60;;;6.60;;
3771;SDS011;1901;48.172;12.824;2023-05-16T05:30:05;6.57;;;5.40;;
3771;SDS011;1901;48.172;12.824;2023-05-16T05:32:32;6.30;;;5.37;;
3771;SDS011;1901;48.172;12.824;2023-05-16T05:34:59;7.10;;;6.40;;
3771;SDS011;1901;48.172;12.824;2023-05-16T05:37:27;8.67;;;5.20;;
3771;SDS011;1901;48.172;12.824;2023-05-16T05:39:55;6.73;;;5.83;;
3771;SDS011;1901;48.172;12.824;2023-05-16T05:42:22;5.30;;;4.80;;
3771;SDS011;1901;48.172;12.824;2023-05-16T05:44:49;6.43;;;5.47;;
3771;SDS011;1901;48.172;12.824;2023-05-16T05:47:17;7.30;;;6.03;;
3771;SDS011;1901;48.172;12.824;2023-05-16T05:49:44;5.70;;;5.10;;
3771;SDS011;1901;48.172;12.824;2023-05-16T05:52:11;5.13;;;4.63;;
3771;SDS011;1901;48.172;12.824;2023-05-16T05:54:39;6.73;;;4.60;;
3771;SDS011;1901;48.172;12.824;2023-05-16T05:57:06;4.87;;;3.93;;
3771;SDS011;1901;48.172;12.824;2023-05-16T05:59:33;5.23;;;4.73;;
3771;SDS011;1901;48.172;12.824;2023-05-16T06:02:00;6.73;;;5.07;;
3771;SDS011;1901;48.172;12.824;2023-05-16T06:04:28;5.20;;;4.40;;
3771;SDS011;1901;48.172;12.824;2023-05-16T06:06:55;5.10;;;4.60;;
3771;SDS011;1901;48.172;12.824;2023-05-16T06:09:23;7.03;;;4.83;;
3771;SDS011;1901;48.172;12.824;2023-05-16T06:11:50;4.83;;;4.43;;
3771;SDS011;1901;48.172;12.824;2023-05-16T06:14:17;9.03;;;5.67;;
3771;SDS011;1901;48.172;12.824;2023-05-16T06:16:44;6.43;;;5.83;;
3771;SDS011;1901;48.172;12.824;2023-05-16T06:19:11;6.53;;;5.83;;
3771;SDS011;1901;48.172;12.824;2023-05-16T06:21:41;6.50;;;5.90;;
3771;SDS011;1901;48.172;12.824;2023-05-16T06:24:09;7.23;;;6.13;;
3771;SDS011;1901;48.172;12.824;2023-05-16T06:26:36;6.73;;;6.03;;
3771;SDS011;1901;48.172;12.824;2023-05-16T06:29:03;7.17;;;6.53;;
3771;SDS011;1901;48.172;12.824;2023-05-16T06:31:30;8.53;;;6.37;;
3771;SDS011;1901;48.172;12.824;2023-05-16T06:33:57;6.20;;;5.23;;
3771;SDS011;1901;48.172;12.824;2023-05-16T06:36:24;9.00;;;7.37;;
3771;SDS011;1901;48.172;12.824;2023-05-16T06:38:53;7.17;;;6.47;;
3771;SDS011;1901;48.172;12.824;2023-05-16T06:41:20;9.50;;;6.60;;
3771;SDS011;1901;48.172;12.824;2023-05-16T06:43:47;10.73;;;7.40;;
3771;SDS011;1901;48.172;12.824;2023-05-16T06:46:14;6.10;;;5.60;;
3771;SDS011;1901;48.172;12.824;2023-05-16T06:48:41;6.20;;;5.70;;
3771;SDS011;1901;48.172;12.824;2023-05-16T06:51:08;9.27;;;6.93;;
3771;SDS011;1901;48.172;12.824;2023-05-16T06:53:35;9.00;;;7.80;;
3771;SDS011;1901;48.172;12.824;2023-05-16T06:56:04;8.13;;;7.40;;
3771;SDS011;1901;48.172;12.824;2023-05-16T06:58:31;7.77;;;7.07;;
3771;SDS011;1901;48.172;12.824;2023-05-16T07:00:58;9.90;;;7.63;;
3771;SDS011;1901;48.172;12.824;2023-05-16T07:03:44;8.60;;;7.67;;
3771;SDS011;1901;48.172;12.824;2023-05-16T07:06:11;8.50;;;6.80;;
3771;SDS011;1901;48.172;12.824;2023-05-16T07:08:38;9.13;;;7.70;;
3771;SDS011;1901;48.172;12.824;2023-05-16T07:11:06;9.53;;;8.30;;
3771;SDS011;1901;48.172;12.824;2023-05-16T07:13:35;9.23;;;8.23;;
3771;SDS011;1901;48.172;12.824;2023-05-16T07:16:02;11.17;;;7.70;;
3771;SDS011;1901;48.172;12.824;2023-05-16T07:18:31;11.00;;;7.30;;
3771;SDS011;1901;48.172;12.824;2023-05-16T07:20:58;8.80;;;7.90;;
3771;SDS011;1901;48.172;12.824;2023-05-16T07:23:25;10.07;;;7.57;;
3771;SDS011;1901;48.172;12.824;2023-05-16T07:25:53;7.30;;;6.57;;
3771;SDS011;1901;48.172;12.824;2023-05-16T07:28:21;7.40;;;6.80;;
3771;SDS011;1901;48.172;12.824;2023-05-16T07:30:48;8.40;;;6.93;;
3771;SDS011;1901;48.172;12.824;2023-05-16T07:33:15;7.57;;;6.83;;
3771;SDS011;1901;48.172;12.824;2023-05-16T07:35:42;8.23;;;7.33;;
3771;SDS011;1901;48.172;12.824;2023-05-16T07:38:10;7.53;;;6.67;;
3771;SDS011;1901;48.172;12.824;2023-05-16T07:40:37;7.63;;;6.57;;
3771;SDS011;1901;48.172;12.824;2023-05-16T07:43:04;12.57;;;7.37;;
3771;SDS011;1901;48.172;12.824;2023-05-16T07:45:33;8.80;;;7.13;;
3771;SDS011;1901;48.172;12.824;2023-05-16T07:48:00;10.47;;;8.50;;
3771;SDS011;1901;48.172;12.824;2023-05-16T07:50:27;16.00;;;8.30;;
3771;SDS011;1901;48.172;12.824;2023-05-16T07:52:54;11.60;;;8.90;;
3771;SDS011;1901;48.172;12.824;2023-05-16T07:55:21;11.03;;;8.30;;
3771;SDS011;1901;48.172;12.824;2023-05-16T07:57:48;9.23;;;8.30;;
3771;SDS011;1901;48.172;12.824;2023-05-16T08:00:16;9.43;;;8.40;;
3771;SDS011;1901;48.172;12.824;2023-05-16T08:02:45;7.80;;;7.00;;
3771;SDS011;1901;48.172;12.824;2023-05-16T08:05:12;11.87;;;9.63;;
3771;SDS011;1901;48.172;12.824;2023-05-16T08:07:39;12.70;;;11.40;;
3771;SDS011;1901;48.172;12.824;2023-05-16T08:10:06;13.70;;;10.97;;
3771;SDS011;1901;48.172;12.824;2023-05-16T08:12:34;13.43;;;11.70;;
3771;SDS011;1901;48.172;12.824;2023-05-16T08:15:01;11.20;;;10.00;;
3771;SDS011;1901;48.172;12.824;2023-05-16T08:17:28;12.97;;;9.60;;
3771;SDS011;1901;48.172;12.824;2023-05-16T08:19:57;14.20;;;7.47;;
3771;SDS011;1901;48.172;12.824;2023-05-16T08:22:25;8.97;;;7.30;;
3771;SDS011;1901;48.172;12.824;2023-05-16T08:24:53;8.33;;;7.57;;
3771;SDS011;1901;48.172;12.824;2023-05-16T08:27:21;10.13;;;8.20;;
3771;SDS011;1901;48.172;12.824;2023-05-16T08:29:49;9.13;;;8.30;;
3771;SDS011;1901;48.172;12.824;2023-05-16T08:32:16;11.70;;;10.43;;
3771;SDS011;1901;48.172;12.824;2023-05-16T08:34:43;9.37;;;8.43;;
3771;SDS011;1901;48.172;12.824;2023-05-16T08:37:12;10.10;;;9.10;;
3771;SDS011;1901;48.172;12.824;2023-05-16T08:39:39;14.53;;;9.90;;
3771;SDS011;1901;48.172;12.824;2023-05-16T08:42:07;10.90;;;9.00;;
3771;SDS011;1901;48.172;12.824;2023-05-16T08:44:34;15.97;;;9.37;;
3771;SDS011;1901;48.172;12.824;2023-05-16T08:47:02;8.07;;;7.37;;
3771;SDS011;1901;48.172;12.824;2023-05-16T08:49:31;9.60;;;8.70;;
3771;SDS011;1901;48.172;12.824;2023-05-16T08:52:00;8.60;;;7.70;;
3771;SDS011;1901;48.172;12.824;2023-05-16T08:54:29;7.77;;;6.97;;
3771;SDS011;1901;48.172;12.824;2023-05-16T08:56:57;8.00;;;7.20;;
3771;SDS011;1901;48.172;12.824;2023-05-16T08:59:26;8.47;;;7.67;;
3771;SDS011;1901;48.172;12.824;2023-05-16T09:01:54;10.93;;;7.07;;
3771;SDS011;1901;48.172;12.824;2023-05-16T09:04:21;9.27;;;7.77;;
3771;SDS011;1901;48.172;12.824;2023-05-16T09:06:50;12.47;;;8.10;;
3771;SDS011;1901;48.172;12.824;2023-05-16T09:09:18;8.90;;;8.03;;
3771;SDS011;1901;48.172;12.824;2023-05-16T09:11:46;8.87;;;7.97;;
3771;SDS011;1901;48.172;12.824;2023-05-16T09:14:13;13.43;;;10.47;;
3771;SDS011;1901;48.172;12.824;2023-05-16T09:16:40;11.33;;;8.70;;
3771;SDS011;1901;48.172;12.824;2023-05-16T09:19:11;23.43;;;19.30;;
3771;SDS011;1901;48.172;12.824;2023-05-16T09:21:38;9.37;;;8.40;;
3771;SDS011;1901;48.172;12.824;2023-05-16T09:24:06;9.70;;;8.80;;
3771;SDS011;1901;48.172;12.824;2023-05-16T09:26:34;12.43;;;11.23;;
3771;SDS011;1901;48.172;12.824;2023-05-16T09:29:03;11.13;;;9.27;;
3771;SDS011;1901;48.172;12.824;2023-05-16T09:31:35;11.13;;;9.93;;
3771;SDS011;1901;48.172;12.824;2023-05-16T09:34:03;11.73;;;10.53;;
3771;SDS011;1901;48.172;12.824;2023-05-16T09:36:30;14.73;;;12.17;;
3771;SDS011;1901;48.172;12.824;2023-05-16T09:38:58;14.10;;;11.60;;
3771;SDS011;1901;48.172;12.824;2023-05-16T09:41:26;11.90;;;10.60;;
3771;SDS011;1901;48.172;12.824;2023-05-16T09:43:53;12.70;;;11.50;;
3771;SDS011;1901;48.172;12.824;2023-05-16T09:46:25;15.33;;;13.77;;
3771;SDS011;1901;48.172;12.824;2023-05-16T09:48:52;13.00;;;11.57;;
3771;SDS011;1901;48.172;12.824;2023-05-16T09:51:21;12.63;;;11.30;;
3771;SDS011;1901;48.172;12.824;2023-05-16T09:53:48;12.87;;;10.93;;
3771;SDS011;1901;48.172;12.824;2023-05-16T09:56:15;14.73;;;11.13;;
3771;SDS011;1901;48.172;12.824;2023-05-16T09:58:43;11.07;;;9.73;;
3771;SDS011;1901;48.172;12.824;2023-05-16T10:01:11;14.20;;;11.07;;
3771;SDS011;1901;48.172;12.824;2023-05-16T10:03:40;13.77;;;11.23;;
3771;SDS011;1901;48.172;12.824;2023-05-16T10:06:07;11.60;;;10.40;;
3771;SDS011;1901;48.172;12.824;2023-05-16T10:08:35;10.67;;;9.60;;
3771;SDS011;1901;48.172;12.824;2023-05-16T10:11:03;12.73;;;9.77;;
3771;SDS011;1901;48.172;12.824;2023-05-16T10:13:32;11.43;;;10.33;;
3771;SDS011;1901;48.172;12.824;2023-05-16T10:16:00;16.03;;;14.33;;
3771;SDS011;1901;48.172;12.824;2023-05-16T10:18:28;10.80;;;9.70;;
3771;SDS011;1901;48.172;12.824;2023-05-16T10:20:57;10.60;;;9.40;;
3771;SDS011;1901;48.172;12.824;2023-05-16T10:23:27;11.37;;;10.27;;
3771;SDS011;1901;48.172;12.824;2023-05-16T10:25:55;21.57;;;19.80;;
3771;SDS011;1901;48.172;12.824;2023-05-16T10:28:23;13.47;;;12.27;;
3771;SDS011;1901;48.172;12.824;2023-05-16T10:30:51;16.00;;;14.40;;
3771;SDS011;1901;48.172;12.824;2023-05-16T10:33:19;13.97;;;12.60;;
3771;SDS011;1901;48.172;12.824;2023-05-16T10:35:46;23.90;;;21.87;;
3771;SDS011;1901;48.172;12.824;2023-05-16T10:38:16;35.93;;;32.60;;
3771;SDS011;1901;48.172;12.824;2023-05-16T10:40:43;18.60;;;16.60;;
3771;SDS011;1901;48.172;12.824;2023-05-16T10:43:13;23.17;;;20.83;;
3771;SDS011;1901;48.172;12.824;2023-05-16T10:45:52;12.73;;;11.30;;
3771;SDS011;1901;48.172;12.824;2023-05-16T10:48:27;11.20;;;10.10;;
3771;SDS011;1901;48.172;12.824;2023-05-16T10:50:54;9.40;;;8.60;;
3771;SDS011;1901;48.172;12.824;2023-05-16T10:53:28;10.60;;;9.60;;
3771;SDS011;1901;48.172;12.824;2023-05-16T10:56:08;10.63;;;9.63;;
3771;SDS011;1901;48.172;12.824;2023-05-16T10:58:39;10.17;;;9.17;;
3771;SDS011;1901;48.172;12.824;2023-05-16T11:01:17;11.80;;;10.60;;
3771;SDS011;1901;48.172;12.824;2023-05-16T11:04:01;11.87;;;9.13;;
3771;SDS011;1901;48.172;12.824;2023-05-16T11:06:28;9.83;;;8.93;;
3771;SDS011;1901;48.172;12.824;2023-05-16T11:08:58;11.70;;;10.50;;
3771;SDS011;1901;48.172;12.824;2023-05-16T11:11:40;11.20;;;9.87;;
3771;SDS011;1901;48.172;12.824;2023-05-16T11:14:08;10.60;;;9.60;;
3771;SDS011;1901;48.172;12.824;2023-05-16T11:16:35;12.70;;;10.13;;
3771;SDS011;1901;48.172;12.824;2023-05-16T11:19:05;11.27;;;10.17;;
3771;SDS011;1901;48.172;12.824;2023-05-16T11:27:06;11.97;;;10.13;;
3771;SDS011;1901;48.172;12.824;2023-05-16T11:29:33;10.60;;;9.60;;
3771;SDS011;1901;48.172;12.824;2023-05-16T11:32:02;13.10;;;9.30;;
3771;SDS011;1901;48.172;12.824;2023-05-16T11:34:29;11.73;;;9.70;;
3771;SDS011;1901;48.172;12.824;2023-05-16T11:36:57;9.37;;;8.57;;
3771;SDS011;1901;48.172;12.824;2023-05-16T11:39:26;9.90;;;9.00;;
3771;SDS011;1901;48.172;12.824;2023-05-16T11:41:53;10.47;;;9.37;;
3771;SDS011;1901;48.172;12.824;2023-05-16T11:44:21;10.07;;;9.03;;
3771;SDS011;1901;48.172;12.824;2023-05-16T11:46:48;10.90;;;9.80;;
3771;SDS011;1901;48.172;12.824;2023-05-16T11:49:16;11.93;;;10.83;;
3771;SDS011;1901;48.172;12.824;2023-05-16T11:51:44;12.70;;;10.83;;
3771;SDS011;1901;48.172;12.824;2023-05-16T11:54:11;12.37;;;11.27;;
3771;SDS011;1901;48.172;12.824;2023-05-16T11:56:39;11.77;;;10.67;;
3771;SDS011;1901;48.172;12.824;2023-05-16T11:59:06;12.57;;;11.37;;
3771;SDS011;1901;48.172;12.824;2023-05-16T12:01:35;14.40;;;11.20;;
3771;SDS011;1901;48.172;12.824;2023-05-16T12:04:06;11.23;;;10.13;;
3771;SDS011;1901;48.172;12.824;2023-05-16T12:06:33;12.10;;;10.90;;
3771;SDS011;1901;48.172;12.824;2023-05-16T12:09:01;12.30;;;11.10;;
3771;SDS011;1901;48.172;12.824;2023-05-16T12:11:34;14.50;;;11.77;;
3771;SDS011;1901;48.172;12.824;2023-05-16T12:14:02;14.03;;;11.27;;
3771;SDS011;1901;48.172;12.824;2023-05-16T12:16:29;12.20;;;11.03;;
3771;SDS011;1901;48.172;12.824;2023-05-16T12:18:58;13.30;;;11.50;;
3771;SDS011;1901;48.172;12.824;2023-05-16T12:21:26;13.63;;;12.33;;
3771;SDS011;1901;48.172;12.824;2023-05-16T12:23:54;15.53;;;13.60;;
3771;SDS011;1901;48.172;12.824;2023-05-16T12:26:23;15.90;;;13.23;;
3771;SDS011;1901;48.172;12.824;2023-05-16T12:28:55;13.00;;;11.20;;
3771;SDS011;1901;48.172;12.824;2023-05-16T12:31:24;12.23;;;11.00;;
3771;SDS011;1901;48.172;12.824;2023-05-16T12:33:52;13.93;;;12.20;;
3771;SDS011;1901;48.172;12.824;2023-05-16T12:36:21;13.10;;;11.57;;
3771;SDS011;1901;48.172;12.824;2023-05-16T12:38:48;14.07;;;11.80;;
3771;SDS011;1901;48.172;12.824;2023-05-16T12:41:16;13.30;;;11.87;;
3771;SDS011;1901;48.172;12.824;2023-05-16T12:43:44;13.93;;;12.50;;
3771;SDS011;1901;48.172;12.824;2023-05-16T12:46:11;14.93;;;12.67;;
3771;SDS011;1901;48.172;12.824;2023-05-16T12:48:38;15.33;;;13.77;;
3771;SDS011;1901;48.172;12.824;2023-05-16T12:51:10;15.00;;;12.57;;
3771;SDS011;1901;48.172;12.824;2023-05-16T12:53:42;15.27;;;13.67;;
3771;SDS011;1901;48.172;12.824;2023-05-16T12:56:10;12.73;;;11.50;;
3771;SDS011;1901;48.172;12.824;2023-05-16T12:58:38;13.10;;;11.70;;
3771;SDS011;1901;48.172;12.824;2023-05-16T13:01:06;11.17;;;10.17;;
3771;SDS011;1901;48.172;12.824;2023-05-16T13:03:33;12.73;;;11.50;;
3771;SDS011;1901;48.172;12.824;2023-05-16T13:06:01;12.47;;;11.27;;
3771;SDS011;1901;48.172;12.824;2023-05-16T13:08:29;12.97;;;11.60;;
3771;SDS011;1901;48.172;12.824;2023-05-16T13:10:58;13.13;;;11.50;;
3771;SDS011;1901;48.172;12.824;2023-05-16T13:13:25;15.70;;;11.00;;
3771;SDS011;1901;48.172;12.824;2023-05-16T13:15:52;11.60;;;10.40;;
3771;SDS011;1901;48.172;12.824;2023-05-16T13:18:19;12.53;;;11.30;;
3771;SDS011;1901;48.172;12.824;2023-05-16T13:20:47;11.73;;;9.80;;
3771;SDS011;1901;48.172;12.824;2023-05-16T13:23:15;10.47;;;8.90;;
3771;SDS011;1901;48.172;12.824;2023-05-16T13:25:42;11.50;;;10.37;;
3771;SDS011;1901;48.172;12.824;2023-05-16T13:28:10;12.50;;;11.07;;
3771;SDS011;1901;48.172;12.824;2023-05-16T13:30:37;13.40;;;12.10;;
3771;SDS011;1901;48.172;12.824;2023-05-16T13:33:05;11.90;;;10.63;;
3771;SDS011;1901;48.172;12.824;2023-05-16T13:35:32;12.10;;;10.67;;
3771;SDS011;1901;48.172;12.824;2023-05-16T13:37:59;12.13;;;10.33;;
3771;SDS011;1901;48.172;12.824;2023-05-16T13:40:27;10.37;;;9.37;;
3771;SDS011;1901;48.172;12.824;2023-05-16T13:42:54;11.83;;;10.67;;
3771;SDS011;1901;48.172;12.824;2023-05-16T13:45:23;14.10;;;9.90;;
3771;SDS011;1901;48.172;12.824;2023-05-16T13:47:50;9.80;;;8.53;;
3771;SDS011;1901;48.172;12.824;2023-05-16T13:50:18;12.40;;;10.20;;
3771;SDS011;1901;48.172;12.824;2023-05-16T13:52:45;11.70;;;9.50;;
3771;SDS011;1901;48.172;12.824;2023-05-16T13:55:13;10.13;;;9.13;;
3771;SDS011;1901;48.172;12.824;2023-05-16T13:57:40;13.20;;;9.57;;
3771;SDS011;1901;48.172;12.824;2023-05-16T14:00:07;12.60;;;10.13;;
3771;SDS011;1901;48.172;12.824;2023-05-16T14:02:37;10.23;;;8.40;;
3771;SDS011;1901;48.172;12.824;2023-05-16T14:05:05;9.77;;;8.43;;
3771;SDS011;1901;48.172;12.824;2023-05-16T14:07:33;7.97;;;7.13;;
3771;SDS011;1901;48.172;12.824;2023-05-16T14:10:00;11.60;;;7.70;;
3771;SDS011;1901;48.172;12.824;2023-05-16T14:12:29;7.13;;;6.17;;
3771;SDS011;1901;48.172;12.824;2023-05-16T14:14:56;7.40;;;6.70;;
3771;SDS011;1901;48.172;12.824;2023-05-16T14:17:23;7.00;;;6.40;;
3771;SDS011;1901;48.172;12.824;2023-05-16T14:19:52;6.10;;;5.07;;
3771;SDS011;1901;48.172;12.824;2023-05-16T14:22:19;6.60;;;6.00;;
3771;SDS011;1901;48.172;12.824;2023-05-16T14:24:46;6.40;;;5.47;;
3771;SDS011;1901;48.172;12.824;2023-05-16T14:27:13;7.20;;;6.50;;
3771;SDS011;1901;48.172;12.824;2023-05-16T14:29:40;7.33;;;6.70;;
3771;SDS011;1901;48.172;12.824;2023-05-16T14:32:08;9.27;;;7.27;;
3771;SDS011;1901;48.172;12.824;2023-05-16T14:34:37;7.07;;;6.40;;
3771;SDS011;1901;48.172;12.824;2023-05-16T14:37:06;7.50;;;6.70;;
3771;SDS011;1901;48.172;12.824;2023-05-16T14:39:34;8.20;;;7.00;;
3771;SDS011;1901;48.172;12.824;2023-05-16T14:42:01;6.67;;;6.07;;
3771;SDS011;1901;48.172;12.824;2023-05-16T14:44:28;37.27;;;7.10;;
3771;SDS011;1901;48.172;12.824;2023-05-16T14:46:55;14.93;;;9.67;;
3771;SDS011;1901;48.172;12.824;2023-05-16T14:49:22;11.37;;;9.43;;
3771;SDS011;1901;48.172;12.824;2023-05-16T14:51:49;10.03;;;8.50;;
3771;SDS011;1901;48.172;12.824;2023-05-16T14:54:18;7.87;;;7.17;;
3771;SDS011;1901;48.172;12.824;2023-05-16T14:56:45;8.37;;;7.47;;
3771;SDS011;1901;48.172;12.824;2023-05-16T14:59:12;7.90;;;7.20;;
3771;SDS011;1901;48.172;12.824;2023-05-16T15:01:39;9.57;;;8.27;;
3771;SDS011;1901;48.172;12.824;2023-05-16T15:04:06;9.63;;;8.53;;
3771;SDS011;1901;48.172;12.824;2023-05-16T15:06:33;10.13;;;9.23;;